sensor_id;sensor_type;location;lat;lon;timestamp;pressure;altitude;pressure_sealevel;temperature;humidity
50590;BME280;36547;50.514;30.840;2023-12-14T00:00:37;99618.99;;;1.20;84.70
50590;BME280;36547;50.514;30.840;2023-12-14T00:01:39;99612.04;;;1.19;84.63
50590;BME280;36547;50.514;30.840;2023-12-14T00:02:42;99615.55;;;1.18;84.55
50590;BME280;36547;50.514;30.840;2023-12-14T00:03:44;99612.96;;;1.17;84.49
50590;BME280;36547;50.514;30.840;2023-12-14T00:04:47;99613.83;;;1.17;84.46
50590;BME280;36547;50.514;30.840;2023-12-14T00:05:49;99607.73;;;1.17;84.39
50590;BME280;36547;50.514;30.840;2023-12-14T00:06:52;99612.09;;;1.16;84.32
50590;BME280;36547;50.514;30.840;2023-12-14T00:07:55;99612.09;;;1.16;84.40
50590;BME280;36547;50.514;30.840;2023-12-14T00:08:58;99607.82;;;1.14;84.33
50590;BME280;36547;50.514;30.840;2023-12-14T00:10:00;99620.94;;;1.12;84.23
50590;BME280;36547;50.514;30.840;2023-12-14T00:11:06;99619.21;;;1.11;84.21
50590;BME280;36547;50.514;30.840;2023-12-14T00:12:09;99610.53;;;1.09;84.23
50590;BME280;36547;50.514;30.840;2023-12-14T00:13:11;99608.81;;;1.08;84.19
50590;BME280;36547;50.514;30.840;2023-12-14T00:14:13;99605.36;;;1.06;84.20
50590;BME280;36547;50.514;30.840;2023-12-14T00:15:16;99602.77;;;1.04;84.22
50590;BME280;36547;50.514;30.840;2023-12-14T00:16:19;99606.28;;;1.03;84.18
50590;BME280;36547;50.514;30.840;2023-12-14T00:17:21;99609.85;;;1.01;84.23
50590;BME280;36547;50.514;30.840;2023-12-14T00:18:24;99607.27;;;0.99;84.32
50590;BME280;36547;50.514;30.840;2023-12-14T00:19:26;99607.30;;;0.98;84.42
50590;BME280;36547;50.514;30.840;2023-12-14T00:20:28;99615.98;;;1.00;84.49
50590;BME280;36547;50.514;30.840;2023-12-14T00:21:30;99611.61;;;1.00;84.51
50590;BME280;36547;50.514;30.840;2023-12-14T00:22:32;99606.31;;;1.02;84.44
50590;BME280;36547;50.514;30.840;2023-12-14T00:23:35;99607.23;;;1.01;84.38
50590;BME280;36547;50.514;30.840;2023-12-14T00:24:38;99602.01;;;1.01;84.33
50590;BME280;36547;50.514;30.840;2023-12-14T00:25:40;99591.55;;;1.01;84.28
50590;BME280;36547;50.514;30.840;2023-12-14T00:26:42;99595.11;;;0.97;84.19
50590;BME280;36547;50.514;30.840;2023-12-14T00:27:44;99598.59;;;0.97;84.29
50590;BME280;36547;50.514;30.840;2023-12-14T00:28:47;99598.63;;;0.96;84.31
50590;BME280;36547;50.514;30.840;2023-12-14T00:29:50;99598.63;;;0.96;84.37
50590;BME280;36547;50.514;30.840;2023-12-14T00:30:53;99596.89;;;0.95;84.38
50590;BME280;36547;50.514;30.840;2023-12-14T00:31:55;99599.52;;;0.95;84.36
50590;BME280;36547;50.514;30.840;2023-12-14T00:32:58;99600.41;;;0.94;84.38
50590;BME280;36547;50.514;30.840;2023-12-14T00:34:01;99600.43;;;0.92;84.34
50590;BME280;36547;50.514;30.840;2023-12-14T00:35:04;99598.73;;;0.90;84.36
50590;BME280;36547;50.514;30.840;2023-12-14T00:36:08;99594.40;;;0.89;84.42
50590;BME280;36547;50.514;30.840;2023-12-14T00:37:10;99596.16;;;0.88;84.46
50590;BME280;36547;50.514;30.840;2023-12-14T00:38:12;99594.43;;;0.87;84.54
50590;BME280;36547;50.514;30.840;2023-12-14T00:39:15;99581.33;;;0.89;84.60
50590;BME280;36547;50.514;30.840;2023-12-14T00:40:18;99584.77;;;0.91;84.60
50590;BME280;36547;50.514;30.840;2023-12-14T00:41:21;99583.05;;;0.90;84.48
50590;BME280;36547;50.514;30.840;2023-12-14T00:42:24;99585.66;;;0.90;84.44
50590;BME280;36547;50.514;30.840;2023-12-14T00:43:26;99583.02;;;0.91;84.41
50590;BME280;36547;50.514;30.840;2023-12-14T00:44:29;99580.41;;;0.91;84.37
50590;BME280;36547;50.514;30.840;2023-12-14T00:45:31;99579.54;;;0.91;84.36
50590;BME280;36547;50.514;30.840;2023-12-14T00:46:34;99580.38;;;0.93;84.30
50590;BME280;36547;50.514;30.840;2023-12-14T00:47:36;99577.76;;;0.93;84.24
50590;BME280;36547;50.514;30.840;2023-12-14T00:48:39;99579.48;;;0.94;84.28
50590;BME280;36547;50.514;30.840;2023-12-14T00:49:41;99571.60;;;0.95;84.28
50590;BME280;36547;50.514;30.840;2023-12-14T00:50:45;99573.36;;;0.95;84.21
50590;BME280;36547;50.514;30.840;2023-12-14T00:51:46;99571.57;;;0.97;84.24
50590;BME280;36547;50.514;30.840;2023-12-14T00:52:49;99568.98;;;0.95;84.18
50590;BME280;36547;50.514;30.840;2023-12-14T00:53:51;99572.47;;;0.96;84.04
50590;BME280;36547;50.514;30.840;2023-12-14T00:54:53;99566.37;;;0.95;84.04
50590;BME280;36547;50.514;30.840;2023-12-14T00:55:56;99563.72;;;0.97;84.06
50590;BME280;36547;50.514;30.840;2023-12-14T00:56:59;99563.72;;;0.97;84.06
50590;BME280;36547;50.514;30.840;2023-12-14T00:58:01;99561.94;;;0.99;84.01
50590;BME280;36547;50.514;30.840;2023-12-14T00:59:04;99562.89;;;0.95;83.89
50590;BME280;36547;50.514;30.840;2023-12-14T01:00:07;99562.00;;;0.96;83.97
50590;BME280;36547;50.514;30.840;2023-12-14T01:01:09;99564.68;;;0.93;84.04
50590;BME280;36547;50.514;30.840;2023-12-14T01:02:12;99564.70;;;0.91;84.07
50590;BME280;36547;50.514;30.840;2023-12-14T01:03:14;99556.83;;;0.93;84.16
50590;BME280;36547;50.514;30.840;2023-12-14T01:04:16;99550.80;;;0.89;84.18
50590;BME280;36547;50.514;30.840;2023-12-14T01:05:19;99552.52;;;0.90;84.29
50590;BME280;36547;50.514;30.840;2023-12-14T01:06:23;99543.79;;;0.91;84.35
50590;BME280;36547;50.514;30.840;2023-12-14T01:07:25;99541.17;;;0.91;84.29
50590;BME280;36547;50.514;30.840;2023-12-14T01:08:28;99540.28;;;0.92;84.19
50590;BME280;36547;50.514;30.840;2023-12-14T01:09:31;99539.42;;;0.92;84.16
50590;BME280;36547;50.514;30.840;2023-12-14T01:10:33;99532.47;;;0.91;84.08
50590;BME280;36547;50.514;30.840;2023-12-14T01:11:37;99535.08;;;0.91;84.13
50590;BME280;36547;50.514;30.840;2023-12-14T01:12:39;99533.42;;;0.87;84.13
50590;BME280;36547;50.514;30.840;2023-12-14T01:13:42;99526.41;;;0.89;84.16
50590;BME280;36547;50.514;30.840;2023-12-14T01:14:44;99527.27;;;0.89;84.16
50590;BME280;36547;50.514;30.840;2023-12-14T01:15:46;99527.27;;;0.89;84.09
50590;BME280;36547;50.514;30.840;2023-12-14T01:16:49;99521.20;;;0.87;84.09
50590;BME280;36547;50.514;30.840;2023-12-14T01:17:52;99520.34;;;0.87;84.04
50590;BME280;36547;50.514;30.840;2023-12-14T01:18:54;99524.69;;;0.88;84.10
50590;BME280;36547;50.514;30.840;2023-12-14T01:19:56;99524.69;;;0.88;84.15
50590;BME280;36547;50.514;30.840;2023-12-14T01:20:59;99522.93;;;0.88;84.10
50590;BME280;36547;50.514;30.840;2023-12-14T01:22:02;99522.06;;;0.88;84.00
50590;BME280;36547;50.514;30.840;2023-12-14T01:23:04;99522.16;;;0.85;83.97
50590;BME280;36547;50.514;30.840;2023-12-14T01:24:07;99513.48;;;0.83;84.14
50590;BME280;36547;50.514;30.840;2023-12-14T01:25:09;99521.33;;;0.83;84.32
50590;BME280;36547;50.514;30.840;2023-12-14T01:26:12;99522.22;;;0.82;84.41
50590;BME280;36547;50.514;30.840;2023-12-14T01:27:15;99517.86;;;0.82;84.47
50590;BME280;36547;50.514;30.840;2023-12-14T01:28:17;99520.44;;;0.84;84.55
50590;BME280;36547;50.514;30.840;2023-12-14T01:29:19;99524.84;;;0.82;84.48
50590;BME280;36547;50.514;30.840;2023-12-14T01:30:22;99529.17;;;0.83;84.51
50590;BME280;36547;50.514;30.840;2023-12-14T01:31:25;99525.67;;;0.84;84.59
50590;BME280;36547;50.514;30.840;2023-12-14T01:32:27;99523.09;;;0.82;84.59
50590;BME280;36547;50.514;30.840;2023-12-14T01:33:29;99525.67;;;0.84;84.57
50590;BME280;36547;50.514;30.840;2023-12-14T01:34:32;99521.33;;;0.83;84.59
50590;BME280;36547;50.514;30.840;2023-12-14T01:35:34;99513.42;;;0.86;84.70
50590;BME280;36547;50.514;30.840;2023-12-14T01:36:38;99514.31;;;0.85;84.69
50590;BME280;36547;50.514;30.840;2023-12-14T01:37:40;99522.95;;;0.87;84.71
50590;BME280;36547;50.514;30.840;2023-12-14T01:38:42;99515.94;;;0.89;84.66
50590;BME280;36547;50.514;30.840;2023-12-14T01:39:45;99519.42;;;0.89;84.51
50590;BME280;36547;50.514;30.840;2023-12-14T01:40:49;99520.28;;;0.90;84.47
50590;BME280;36547;50.514;30.840;2023-12-14T01:41:53;99519.52;;;0.86;84.43
50590;BME280;36547;50.514;30.840;2023-12-14T01:43:07;99518.56;;;0.89;84.47
50590;BME280;36547;50.514;30.840;2023-12-14T01:44:09;99513.33;;;0.89;84.54
50590;BME280;36547;50.514;30.840;2023-12-14T01:45:12;99501.14;;;0.88;84.48
50590;BME280;36547;50.514;30.840;2023-12-14T01:46:16;99501.14;;;0.88;84.43
50590;BME280;36547;50.514;30.840;2023-12-14T01:47:18;99501.14;;;0.88;84.43
50590;BME280;36547;50.514;30.840;2023-12-14T01:48:21;99498.59;;;0.86;84.49
50590;BME280;36547;50.514;30.840;2023-12-14T01:49:24;99489.82;;;0.87;84.54
50590;BME280;36547;50.514;30.840;2023-12-14T01:50:26;99488.93;;;0.88;84.59
50590;BME280;36547;50.514;30.840;2023-12-14T01:51:29;99494.16;;;0.88;84.56
50590;BME280;36547;50.514;30.840;2023-12-14T01:52:31;99488.90;;;0.90;84.55
50590;BME280;36547;50.514;30.840;2023-12-14T01:53:34;99486.28;;;0.90;84.54
50590;BME280;36547;50.514;30.840;2023-12-14T01:54:36;99486.25;;;0.91;84.53
50590;BME280;36547;50.514;30.840;2023-12-14T01:55:38;99475.75;;;0.93;84.52
50590;BME280;36547;50.514;30.840;2023-12-14T01:56:42;99472.25;;;0.94;84.46
50590;BME280;36547;50.514;30.840;2023-12-14T01:57:44;99470.45;;;0.96;84.33
50590;BME280;36547;50.514;30.840;2023-12-14T01:58:47;99462.61;;;0.96;84.28
50590;BME280;36547;50.514;30.840;2023-12-14T01:59:49;99465.27;;;0.94;84.18
50590;BME280;36547;50.514;30.840;2023-12-14T02:02:02;99465.30;;;0.93;84.11
50590;BME280;36547;50.514;30.840;2023-12-14T02:03:04;99457.45;;;0.93;84.15
50590;BME280;36547;50.514;30.840;2023-12-14T02:04:06;99460.95;;;0.92;84.11
50590;BME280;36547;50.514;30.840;2023-12-14T02:05:09;99453.18;;;0.89;84.13
50590;BME280;36547;50.514;30.840;2023-12-14T02:06:12;99456.66;;;0.89;84.21
50590;BME280;36547;50.514;30.840;2023-12-14T02:07:14;99454.00;;;0.91;84.24
50590;BME280;36547;50.514;30.840;2023-12-14T02:08:16;99459.23;;;0.91;84.24
50590;BME280;36547;50.514;30.840;2023-12-14T02:09:19;99453.18;;;0.89;84.21
50590;BME280;36547;50.514;30.840;2023-12-14T02:10:22;99450.56;;;0.89;84.23
50590;BME280;36547;50.514;30.840;2023-12-14T02:11:25;99448.78;;;0.91;84.27
50590;BME280;36547;50.514;30.840;2023-12-14T02:12:27;99443.55;;;0.91;84.27
50590;BME280;36547;50.514;30.840;2023-12-14T02:13:29;99442.65;;;0.92;84.27
50590;BME280;36547;50.514;30.840;2023-12-14T02:14:31;99450.50;;;0.92;84.24
50590;BME280;36547;50.514;30.840;2023-12-14T02:15:34;99444.37;;;0.93;84.16
50590;BME280;36547;50.514;30.840;2023-12-14T02:16:38;99443.55;;;0.91;84.13
50590;BME280;36547;50.514;30.840;2023-12-14T02:17:41;99439.20;;;0.90;84.18
50590;BME280;36547;50.514;30.840;2023-12-14T02:18:43;99436.59;;;0.90;84.22
50590;BME280;36547;50.514;30.840;2023-12-14T02:19:45;99430.44;;;0.92;84.21
50590;BME280;36547;50.514;30.840;2023-12-14T02:20:48;99439.17;;;0.91;84.08
50590;BME280;36547;50.514;30.840;2023-12-14T02:21:50;99429.61;;;0.90;84.17
50590;BME280;36547;50.514;30.840;2023-12-14T02:22:53;99434.02;;;0.88;84.13
50590;BME280;36547;50.514;30.840;2023-12-14T02:23:56;99425.30;;;0.88;84.26
50590;BME280;36547;50.514;30.840;2023-12-14T02:24:58;99421.83;;;0.87;84.34
50590;BME280;36547;50.514;30.840;2023-12-14T02:26:01;99425.30;;;0.88;84.35
50590;BME280;36547;50.514;30.840;2023-12-14T02:27:04;99408.83;;;0.86;84.25
50590;BME280;36547;50.514;30.840;2023-12-14T02:28:06;99417.53;;;0.86;84.23
50590;BME280;36547;50.514;30.840;2023-12-14T02:29:11;99419.22;;;0.87;84.23
50590;BME280;36547;50.514;30.840;2023-12-14T02:30:15;99419.31;;;0.84;84.29
50590;BME280;36547;50.514;30.840;2023-12-14T02:31:19;99405.28;;;0.87;84.30
50590;BME280;36547;50.514;30.840;2023-12-14T02:32:21;99399.22;;;0.86;84.24
50590;BME280;36547;50.514;30.840;2023-12-14T02:33:25;99408.83;;;0.86;84.23
50590;BME280;36547;50.514;30.840;2023-12-14T02:34:27;99395.78;;;0.84;84.20
50590;BME280;36547;50.514;30.840;2023-12-14T02:35:29;99399.33;;;0.82;84.14
50590;BME280;36547;50.514;30.840;2023-12-14T02:36:33;99393.20;;;0.83;84.14
50590;BME280;36547;50.514;30.840;2023-12-14T02:37:36;99395.88;;;0.80;84.15
50590;BME280;36547;50.514;30.840;2023-12-14T02:38:39;99391.62;;;0.76;84.11
50590;BME280;36547;50.514;30.840;2023-12-14T02:39:41;99401.22;;;0.75;84.09
50590;BME280;36547;50.514;30.840;2023-12-14T02:40:46;99399.53;;;0.73;84.15
50590;BME280;36547;50.514;30.840;2023-12-14T02:41:48;99400.45;;;0.72;84.20
50590;BME280;36547;50.514;30.840;2023-12-14T02:42:51;99393.54;;;0.69;84.19
50590;BME280;36547;50.514;30.840;2023-12-14T02:43:53;99394.47;;;0.66;84.30
50590;BME280;36547;50.514;30.840;2023-12-14T02:44:56;99387.52;;;0.65;84.42
50590;BME280;36547;50.514;30.840;2023-12-14T02:45:59;99392.75;;;0.65;84.40
50590;BME280;36547;50.514;30.840;2023-12-14T02:47:01;99387.59;;;0.62;84.48
50590;BME280;36547;50.514;30.840;2023-12-14T02:48:04;99397.21;;;0.60;84.56
50590;BME280;36547;50.514;30.840;2023-12-14T02:49:07;99397.21;;;0.60;84.56
50590;BME280;36547;50.514;30.840;2023-12-14T02:50:11;99390.27;;;0.59;84.62
50590;BME280;36547;50.514;30.840;2023-12-14T02:51:14;99396.39;;;0.58;84.78
50590;BME280;36547;50.514;30.840;2023-12-14T02:52:18;99389.41;;;0.59;84.80
50590;BME280;36547;50.514;30.840;2023-12-14T02:53:20;99385.00;;;0.61;84.79
50590;BME280;36547;50.514;30.840;2023-12-14T02:54:23;99387.65;;;0.59;84.76
50590;BME280;36547;50.514;30.840;2023-12-14T02:55:25;99391.13;;;0.60;84.83
50590;BME280;36547;50.514;30.840;2023-12-14T02:56:29;99389.41;;;0.59;84.87
50590;BME280;36547;50.514;30.840;2023-12-14T02:57:31;99391.98;;;0.60;84.89
50590;BME280;36547;50.514;30.840;2023-12-14T02:58:33;99378.92;;;0.60;84.82
50590;BME280;36547;50.514;30.840;2023-12-14T02:59:35;99391.98;;;0.60;84.75
50590;BME280;36547;50.514;30.840;2023-12-14T03:00:38;99387.65;;;0.59;84.73
50590;BME280;36547;50.514;30.840;2023-12-14T03:01:40;99382.42;;;0.59;84.77
50590;BME280;36547;50.514;30.840;2023-12-14T03:02:42;99381.56;;;0.59;84.80
50590;BME280;36547;50.514;30.840;2023-12-14T03:03:45;99379.94;;;0.55;84.88
50590;BME280;36547;50.514;30.840;2023-12-14T03:04:48;99374.75;;;0.53;84.90
50590;BME280;36547;50.514;30.840;2023-12-14T03:05:50;99372.13;;;0.53;84.96
50590;BME280;36547;50.514;30.840;2023-12-14T03:06:54;99375.58;;;0.55;84.98
50590;BME280;36547;50.514;30.840;2023-12-14T03:07:56;99379.97;;;0.53;85.03
50590;BME280;36547;50.514;30.840;2023-12-14T03:08:59;99373.85;;;0.54;85.07
50590;BME280;36547;50.514;30.840;2023-12-14T03:10:03;99374.81;;;0.50;85.14
50590;BME280;36547;50.514;30.840;2023-12-14T03:11:06;99364.33;;;0.52;85.21
50590;BME280;36547;50.514;30.840;2023-12-14T03:12:08;99370.41;;;0.52;85.25
50590;BME280;36547;50.514;30.840;2023-12-14T03:13:10;99367.80;;;0.52;85.33
50590;BME280;36547;50.514;30.840;2023-12-14T03:14:12;99366.02;;;0.54;85.38
50590;BME280;36547;50.514;30.840;2023-12-14T03:15:17;99371.17;;;0.57;85.38
50590;BME280;36547;50.514;30.840;2023-12-14T03:16:20;99371.17;;;0.57;85.30
50590;BME280;36547;50.514;30.840;2023-12-14T03:17:24;99371.17;;;0.57;85.30
50590;BME280;36547;50.514;30.840;2023-12-14T03:18:26;99364.23;;;0.56;85.32
50590;BME280;36547;50.514;30.840;2023-12-14T03:19:28;99360.75;;;0.56;85.34
50590;BME280;36547;50.514;30.840;2023-12-14T03:20:31;99354.66;;;0.55;85.35
50590;BME280;36547;50.514;30.840;2023-12-14T03:21:33;99359.00;;;0.56;85.40
50590;BME280;36547;50.514;30.840;2023-12-14T03:22:35;99353.70;;;0.58;85.38
50590;BME280;36547;50.514;30.840;2023-12-14T03:23:39;99358.90;;;0.59;85.39
50590;BME280;36547;50.514;30.840;2023-12-14T03:24:42;99350.27;;;0.57;85.42
50590;BME280;36547;50.514;30.840;2023-12-14T03:25:44;99353.67;;;0.59;85.47
50590;BME280;36547;50.514;30.840;2023-12-14T03:26:47;99355.42;;;0.59;85.46
50590;BME280;36547;50.514;30.840;2023-12-14T03:27:50;99352.81;;;0.59;85.46
50590;BME280;36547;50.514;30.840;2023-12-14T03:28:52;99349.30;;;0.60;85.44
50590;BME280;36547;50.514;30.840;2023-12-14T03:29:55;99343.22;;;0.59;85.45
50590;BME280;36547;50.514;30.840;2023-12-14T03:30:57;99346.66;;;0.61;85.48
50590;BME280;36547;50.514;30.840;2023-12-14T03:32:01;99344.04;;;0.61;85.44
50590;BME280;36547;50.514;30.840;2023-12-14T03:33:03;99340.56;;;0.61;85.48
50590;BME280;36547;50.514;30.840;2023-12-14T03:34:05;99339.67;;;0.62;85.51
50590;BME280;36547;50.514;30.840;2023-12-14T03:35:08;99341.36;;;0.64;85.50
50590;BME280;36547;50.514;30.840;2023-12-14T03:36:12;99335.27;;;0.64;85.42
50590;BME280;36547;50.514;30.840;2023-12-14T03:37:14;99335.27;;;0.64;85.43
50590;BME280;36547;50.514;30.840;2023-12-14T03:38:16;99339.64;;;0.63;85.48
50590;BME280;36547;50.514;30.840;2023-12-14T03:39:19;99334.41;;;0.63;85.56
50590;BME280;36547;50.514;30.840;2023-12-14T03:40:23;99330.87;;;0.66;85.57
50590;BME280;36547;50.514;30.840;2023-12-14T03:41:26;99325.67;;;0.64;85.58
50590;BME280;36547;50.514;30.840;2023-12-14T03:42:28;99322.09;;;0.68;85.57
50590;BME280;36547;50.514;30.840;2023-12-14T03:43:30;99323.81;;;0.69;85.52
50590;BME280;36547;50.514;30.840;2023-12-14T03:44:33;99323.78;;;0.71;85.49
50590;BME280;36547;50.514;30.840;2023-12-14T03:45:35;99322.02;;;0.72;85.42
50590;BME280;36547;50.514;30.840;2023-12-14T03:46:38;99317.69;;;0.70;85.38
50590;BME280;36547;50.514;30.840;2023-12-14T03:47:40;99326.39;;;0.71;85.34
50590;BME280;36547;50.514;30.840;2023-12-14T03:48:43;99325.53;;;0.70;85.35
50590;BME280;36547;50.514;30.840;2023-12-14T03:49:45;99319.45;;;0.70;85.35
50590;BME280;36547;50.514;30.840;2023-12-14T03:50:48;99322.06;;;0.70;85.36
50590;BME280;36547;50.514;30.840;2023-12-14T03:51:51;99325.53;;;0.70;85.37
50590;BME280;36547;50.514;30.840;2023-12-14T03:52:53;99317.69;;;0.70;85.38
50590;BME280;36547;50.514;30.840;2023-12-14T03:53:56;99319.41;;;0.72;85.31
50590;BME280;36547;50.514;30.840;2023-12-14T03:54:58;99312.46;;;0.70;85.31
50590;BME280;36547;50.514;30.840;2023-12-14T03:56:01;99318.48;;;0.73;85.34
50590;BME280;36547;50.514;30.840;2023-12-14T03:57:03;99311.50;;;0.73;85.29
50590;BME280;36547;50.514;30.840;2023-12-14T03:58:06;99316.69;;;0.75;85.26
50590;BME280;36547;50.514;30.840;2023-12-14T03:59:08;99314.97;;;0.74;85.26
50590;BME280;36547;50.514;30.840;2023-12-14T04:00:13;99311.50;;;0.73;85.23
50590;BME280;36547;50.514;30.840;2023-12-14T04:01:19;99312.42;;;0.72;85.23
50590;BME280;36547;50.514;30.840;2023-12-14T04:02:22;99307.20;;;0.72;85.24
50590;BME280;36547;50.514;30.840;2023-12-14T04:03:24;99306.23;;;0.75;85.25
50590;BME280;36547;50.514;30.840;2023-12-14T04:04:27;99306.27;;;0.73;85.21
50590;BME280;36547;50.514;30.840;2023-12-14T04:05:29;99306.23;;;0.75;85.19
50590;BME280;36547;50.514;30.840;2023-12-14T04:06:33;99307.13;;;0.74;85.19
50590;BME280;36547;50.514;30.840;2023-12-14T04:07:38;99309.81;;;0.72;85.24
50590;BME280;36547;50.514;30.840;2023-12-14T04:08:42;99308.09;;;0.71;85.24
50590;BME280;36547;50.514;30.840;2023-12-14T04:09:44;99304.62;;;0.70;85.29
50590;BME280;36547;50.514;30.840;2023-12-14T04:10:47;99302.80;;;0.73;85.31
50590;BME280;36547;50.514;30.840;2023-12-14T04:11:49;99302.80;;;0.73;85.32
50590;BME280;36547;50.514;30.840;2023-12-14T04:12:52;99298.50;;;0.72;85.31
50590;BME280;36547;50.514;30.840;2023-12-14T04:13:55;99294.16;;;0.70;85.32
50590;BME280;36547;50.514;30.840;2023-12-14T04:14:57;99292.41;;;0.71;85.33
50590;BME280;36547;50.514;30.840;2023-12-14T04:16:00;99295.81;;;0.73;85.31
50590;BME280;36547;50.514;30.840;2023-12-14T04:17:02;99295.88;;;0.72;85.38
50590;BME280;36547;50.514;30.840;2023-12-14T04:18:07;99297.56;;;0.73;85.38
50590;BME280;36547;50.514;30.840;2023-12-14T04:19:10;99292.34;;;0.73;85.34
50590;BME280;36547;50.514;30.840;2023-12-14T04:20:13;99291.52;;;0.72;85.38
50590;BME280;36547;50.514;30.840;2023-12-14T04:21:16;99301.97;;;0.72;85.41
50590;BME280;36547;50.514;30.840;2023-12-14T04:22:18;99293.27;;;0.72;85.45
50590;BME280;36547;50.514;30.840;2023-12-14T04:23:20;99294.05;;;0.74;85.50
50590;BME280;36547;50.514;30.840;2023-12-14T04:24:23;99287.11;;;0.73;85.51
50590;BME280;36547;50.514;30.840;2023-12-14T04:25:25;99289.72;;;0.73;85.48
50590;BME280;36547;50.514;30.840;2023-12-14T04:26:28;99296.78;;;0.70;85.46
50590;BME280;36547;50.514;30.840;2023-12-14T04:27:30;99289.79;;;0.71;85.42
50590;BME280;36547;50.514;30.840;2023-12-14T04:28:33;99289.72;;;0.73;85.34
50590;BME280;36547;50.514;30.840;2023-12-14T04:29:35;99288.94;;;0.70;85.33
50590;BME280;36547;50.514;30.840;2023-12-14T04:30:38;99281.98;;;0.69;85.36
50590;BME280;36547;50.514;30.840;2023-12-14T04:31:40;99294.23;;;0.67;85.41
50590;BME280;36547;50.514;30.840;2023-12-14T04:32:42;99298.61;;;0.67;85.46
50590;BME280;36547;50.514;30.840;2023-12-14T04:33:44;99294.30;;;0.64;85.43
50590;BME280;36547;50.514;30.840;2023-12-14T04:34:46;99288.19;;;0.65;85.48
50590;BME280;36547;50.514;30.840;2023-12-14T04:35:49;99297.81;;;0.63;85.45
50590;BME280;36547;50.514;30.840;2023-12-14T04:36:53;99294.30;;;0.64;85.48
50590;BME280;36547;50.514;30.840;2023-12-14T04:37:55;99293.45;;;0.64;85.53
50590;BME280;36547;50.514;30.840;2023-12-14T04:38:58;99286.47;;;0.64;85.61
50590;BME280;36547;50.514;30.840;2023-12-14T04:40:00;99289.08;;;0.64;85.60
50590;BME280;36547;50.514;30.840;2023-12-14T04:41:02;99279.45;;;0.66;85.59
50590;BME280;36547;50.514;30.840;2023-12-14T04:42:05;99282.06;;;0.66;85.54
50590;BME280;36547;50.514;30.840;2023-12-14T04:43:07;99287.22;;;0.69;85.55
50590;BME280;36547;50.514;30.840;2023-12-14T04:44:10;99276.76;;;0.69;85.50
50590;BME280;36547;50.514;30.840;2023-12-14T04:45:12;99281.09;;;0.70;85.44
50590;BME280;36547;50.514;30.840;2023-12-14T04:46:16;99280.20;;;0.72;85.40
50590;BME280;36547;50.514;30.840;2023-12-14T04:47:18;99277.58;;;0.72;85.40
50590;BME280;36547;50.514;30.840;2023-12-14T04:48:21;99284.56;;;0.71;85.37
50590;BME280;36547;50.514;30.840;2023-12-14T04:49:23;99274.86;;;0.75;85.37
50590;BME280;36547;50.514;30.840;2023-12-14T04:50:26;99279.27;;;0.73;85.31
50590;BME280;36547;50.514;30.840;2023-12-14T04:51:29;99273.14;;;0.74;85.30
50590;BME280;36547;50.514;30.840;2023-12-14T04:52:31;99280.98;;;0.74;85.27
50590;BME280;36547;50.514;30.840;2023-12-14T04:53:34;99283.53;;;0.77;85.34
50590;BME280;36547;50.514;30.840;2023-12-14T04:54:36;99270.41;;;0.78;85.32
50590;BME280;36547;50.514;30.840;2023-12-14T04:55:38;99275.68;;;0.77;85.27
50590;BME280;36547;50.514;30.840;2023-12-14T04:56:41;99274.78;;;0.78;85.30
50590;BME280;36547;50.514;30.840;2023-12-14T04:57:44;99274.78;;;0.78;85.32
50590;BME280;36547;50.514;30.840;2023-12-14T04:58:46;99280.02;;;0.78;85.39
50590;BME280;36547;50.514;30.840;2023-12-14T04:59:49;99272.99;;;0.80;85.41
50590;BME280;36547;50.514;30.840;2023-12-14T05:00:51;99271.23;;;0.80;85.33
50590;BME280;36547;50.514;30.840;2023-12-14T05:01:54;99269.48;;;0.81;85.28
50590;BME280;36547;50.514;30.840;2023-12-14T05:02:56;99264.25;;;0.81;85.27
50590;BME280;36547;50.514;30.840;2023-12-14T05:03:58;99268.63;;;0.80;85.29
50590;BME280;36547;50.514;30.840;2023-12-14T05:05:00;99272.13;;;0.79;85.32
50590;BME280;36547;50.514;30.840;2023-12-14T05:06:03;99256.48;;;0.78;85.34
50590;BME280;36547;50.514;30.840;2023-12-14T05:07:06;99262.61;;;0.77;85.38
50590;BME280;36547;50.514;30.840;2023-12-14T05:08:09;99260.89;;;0.76;85.53
50590;BME280;36547;50.514;30.840;2023-12-14T05:09:11;99263.55;;;0.74;85.58
50590;BME280;36547;50.514;30.840;2023-12-14T05:10:14;99260.97;;;0.73;85.64
50590;BME280;36547;50.514;30.840;2023-12-14T05:11:17;99262.69;;;0.74;85.61
50590;BME280;36547;50.514;30.840;2023-12-14T05:12:20;99257.52;;;0.72;85.66
50590;BME280;36547;50.514;30.840;2023-12-14T05:13:23;99260.97;;;0.73;85.77
50590;BME280;36547;50.514;30.840;2023-12-14T05:14:25;99251.37;;;0.73;85.85
50590;BME280;36547;50.514;30.840;2023-12-14T05:15:27;99254.05;;;0.72;85.81
50590;BME280;36547;50.514;30.840;2023-12-14T05:16:31;99260.17;;;0.70;85.85
50590;BME280;36547;50.514;30.840;2023-12-14T05:17:33;99248.86;;;0.70;85.90
50590;BME280;36547;50.514;30.840;2023-12-14T05:18:35;99251.47;;;0.70;85.81
50590;BME280;36547;50.514;30.840;2023-12-14T05:19:38;99252.33;;;0.70;85.79
50590;BME280;36547;50.514;30.840;2023-12-14T05:20:41;99257.64;;;0.67;85.76
50590;BME280;36547;50.514;30.840;2023-12-14T05:21:44;99255.92;;;0.66;85.96
50590;BME280;36547;50.514;30.840;2023-12-14T05:22:47;99251.55;;;0.67;85.96
50590;BME280;36547;50.514;30.840;2023-12-14T05:23:49;99250.66;;;0.68;85.94
50590;BME280;36547;50.514;30.840;2023-12-14T05:24:52;99248.90;;;0.68;85.86
50590;BME280;36547;50.514;30.840;2023-12-14T05:25:55;99255.02;;;0.67;85.73
50590;BME280;36547;50.514;30.840;2023-12-14T05:26:57;99248.11;;;0.65;85.73
50590;BME280;36547;50.514;30.840;2023-12-14T05:28:00;99256.84;;;0.64;85.79
50590;BME280;36547;50.514;30.840;2023-12-14T05:29:02;99252.48;;;0.64;85.84
50590;BME280;36547;50.514;30.840;2023-12-14T05:30:07;99247.29;;;0.63;85.85
50590;BME280;36547;50.514;30.840;2023-12-14T05:31:09;99242.06;;;0.63;85.86
50590;BME280;36547;50.514;30.840;2023-12-14T05:32:12;99244.72;;;0.61;85.81
50590;BME280;36547;50.514;30.840;2023-12-14T05:33:14;99239.52;;;0.60;85.97